Latest Weather Observations for Forbes

IDN60801

Issued at 10:52 pm EST Wednesday 12 August 2020 (issued every 10 minutes, with the page automatically refreshed every 10 minutes)

About weather observations | Map of weather stations | Latest weather observations for NSW | Other Formats
Station Details ID: 065103 Name: FORBES AIRPORT AWS Lat: -33.36 Lon: 147.92 Height: 230.4 m
Data from the previous 72 hours. | See also: Recent months at Forbes
Date/Time
EST
Temp
°C
App
Temp
°C
Dew
Point
°C
Rel
Hum
%
Delta-T
°C
Wind Press
QNH
hPa
Press
MSL
hPa
Rain since
9am
mm
Dir  Spd
km/h
Gust
km/h
Spd
kts
Gust
kts
12/10:36pm 12.8 11.0 12.0 95 0.4 WNW 13 39 7 21 1013.5 1013.7 1.2
12/10:30pm 12.0 11.8 11.7 98 0.2 W 4 7 2 4 1012.8 1013.1 1.0
12/10:00pm 12.3 11.8 12.0 98 0.2 WNW 6 7 3 4 1012.3 1012.6 1.0
12/09:30pm 12.8 12.4 12.5 98 0.2 WSW 6 11 3 6 1012.1 1012.4 1.0
12/09:00pm 12.3 10.9 12.1 99 0.1 N 11 15 6 8 1011.7 1012.0 0.6
12/08:30pm 10.6 9.6 10.4 99 0.1 NNE 6 9 3 5 1011.5 1011.8 0.0
12/08:00pm 10.5 9.3 10.3 99 0.1 NE 7 9 4 5 1011.4 1011.7 0.0
12/07:30pm 10.7 9.5 10.4 98 0.2 NE 7 9 4 5 1011.4 1011.7 0.0
12/07:00pm 11.2 10.1 10.1 93 0.6 NE 6 9 3 5 1011.3 1011.6 0.0
12/06:30pm 11.7 10.5 10.3 91 0.7 ENE 7 9 4 5 1011.0 1011.3 0.0
12/06:00pm 13.1 12.3 11.2 88 1.0 ESE 6 7 3 4 1010.7 1010.9 0.0
12/05:30pm 14.9 14.9 12.4 85 1.4 NE 4 7 2 4 1010.6 1010.8 0.0
12/05:00pm 16.5 16.6 12.7 78 2.1 NE 4 6 2 3 1010.4 1010.6 0.0
12/04:30pm 17.3 16.4 12.6 74 2.6 NE 9 13 5 7 1010.1 1010.3 0.0
12/04:00pm 17.4 16.3 12.1 71 3.0 NNE 9 13 5 7 1010.3 1010.5 0.0
12/03:30pm 17.6 16.6 12.3 71 3.0 NNE 9 13 5 7 1010.4 1010.6 0.0
12/03:00pm 16.2 15.8 12.4 78 2.1 NNE 6 11 3 6 1010.6 1010.8 0.0
12/02:30pm 15.6 14.3 11.2 75 2.4 NNE 9 13 5 7 1010.9 1011.1 0.0
12/02:00pm 15.9 14.6 11.1 73 2.6 NNE 9 17 5 9 1011.1 1011.4 0.0
12/01:30pm 15.2 14.1 10.8 75 2.4 NNE 7 11 4 6 1011.4 1011.7 0.0
12/01:00pm 14.9 12.6 10.5 75 2.3 NNE 13 17 7 9 1011.9 1012.2 0.0
12/12:30pm 14.1 11.4 10.5 79 1.9 NNE 15 20 8 11 1012.4 1012.7 0.0
12/12:00pm 14.0 10.6 10.6 80 1.8 NNE 19 24 10 13 1013.0 1013.3 0.0
12/11:30am 13.6 10.2 10.6 82 1.6 NNE 19 24 10 13 1013.5 1013.7 0.0
12/11:00am 12.6 8.9 10.3 86 1.2 N 20 26 11 14 1014.2 1014.4 0.0
12/10:30am 12.6 9.0 10.7 88 1.0 N 20 30 11 16 1014.6 1014.9 0.0
12/10:00am 12.0 7.9 10.1 88 1.0 NNE 22 28 12 15 1014.9 1015.2 0.0
12/09:30am 12.0 7.5 10.2 89 0.9 N 24 35 13 19 1015.1 1015.4 0.0
12/09:00am 11.8 7.2 9.5 86 1.2 N 24 33 13 18 1015.7 1016.0 0.0
12/08:30am 11.2 9.2 10.0 92 0.6 N 11 15 6 8 1015.6 1015.9 0.0
12/08:00am 9.3 7.3 8.7 96 0.3 NNE 9 11 5 6 1015.4 1015.7 0.0
12/07:30am 8.8 6.8 8.5 98 0.1 NNE 9 11 5 6 1015.4 1015.7 0.0
12/07:00am 8.2 6.6 8.1 99 0.0 N 6 6 3 3 1015.3 1015.6 0.0
12/06:30am 7.8 6.1 7.7 99 0.0 NNE 6 7 3 4 1015.0 1015.3 0.0
12/06:00am 8.3 6.6 8.2 99 0.0 NE 7 9 4 5 1014.9 1015.2 0.0
12/05:30am 7.9 7.4 7.8 99 0.0 CALM 0 0 0 0 1015.0 1015.3 0.0
12/05:00am 8.1 6.5 8.0 99 0.0 ENE 6 7 3 4 1014.6 1014.9 0.0
12/04:30am 8.0 5.8 7.9 99 0.0 E 9 9 5 5 1014.5 1014.7 0.0
12/04:00am 7.7 5.4 7.6 99 0.0 ENE 9 11 5 6 1014.7 1015.0 0.0
12/03:30am 7.9 5.7 7.8 99 0.0 E 9 11 5 6 1014.9 1015.2 0.0
12/03:00am 8.1 6.3 8.0 99 0.0 E 7 9 4 5 1015.0 1015.3 0.0
12/02:30am 7.9 7.0 7.8 99 0.0 E 2 4 1 2 1015.6 1015.9 0.0
12/02:00am 8.0 6.7 7.7 98 0.1 E 4 6 2 3 1015.7 1016.0 0.0
12/01:30am 7.9 6.1 7.8 99 0.0 E 7 11 4 6 1015.9 1016.2 0.0
12/01:00am 7.7 7.1 7.6 99 0.0 CALM 0 6 0 3 1016.2 1016.5 0.0
12/12:30am 7.8 5.6 7.7 99 0.0 ENE 9 11 5 6 1015.8 1016.1 0.0
12/12:00am 7.8 5.6 7.7 99 0.0 ENE 9 11 5 6 1016.0 1016.3 0.0
 
Date/Time
EST
Temp
°C
App
Temp
°C
Dew
Point
°C
Rel
Hum
%
Delta-T
°C
Wind Press
QNH
hPa
Press
MSL
hPa
Rain since
9am
mm
Dir  Spd
km/h
Gust
km/h
Spd
kts
Gust
kts
11/11:30pm 7.6 5.3 7.5 99 0.0 E 9 9 5 5 1016.3 1016.6 0.0
11/11:00pm 7.4 6.8 7.3 99 0.0 CALM 0 0 0 0 1016.7 1017.0 0.0
11/10:30pm 7.1 6.4 7.0 99 0.0 CALM 0 0 0 0 1017.1 1017.4 0.0
11/10:00pm 7.3 6.7 7.2 99 0.0 CALM 0 0 0 0 1017.0 1017.3 0.0
11/09:30pm 7.4 6.8 7.3 99 0.0 CALM 0 0 0 0 1017.2 1017.5 0.0
11/09:00pm 7.4 6.8 7.3 99 0.0 CALM 0 0 0 0 1017.1 1017.4 0.0
11/08:30pm 8.0 7.4 7.6 97 0.2 CALM 0 0 0 0 1017.0 1017.3 0.0
11/08:00pm 8.3 6.5 7.2 93 0.5 NNE 6 7 3 4 1016.8 1017.1 0.0
11/07:30pm 9.7 8.0 8.3 91 0.7 ENE 7 9 4 5 1016.7 1017.0 0.0
11/07:00pm 9.5 7.3 7.9 90 0.8 ENE 9 11 5 6 1016.5 1016.8 0.0
11/06:30pm 9.7 7.6 8.1 90 0.8 ENE 9 13 5 7 1016.3 1016.6 0.0
11/06:00pm 10.0 8.3 8.3 89 0.8 NE 7 7 4 4 1017.3 1017.6 0.0
11/05:30pm 11.3 9.9 8.7 84 1.3 NE 6 6 3 3 1017.3 1017.6 0.0
11/05:00pm 12.8 11.7 8.5 75 2.2 N 4 6 2 3 1017.5 1017.8 0.0
11/04:30pm 13.4 11.9 8.5 72 2.5 N 6 7 3 4 1017.3 1017.6 0.0
11/04:00pm 14.4 12.1 7.5 63 3.4 N 9 15 5 8 1017.1 1017.4 0.0
11/03:30pm 14.6 12.2 7.2 61 3.7 N 9 13 5 7 1017.1 1017.4 0.0
11/03:00pm 14.8 12.7 6.6 58 4.0 NE 7 11 4 6 1017.2 1017.5 0.0
11/02:30pm 14.6 11.5 7.2 61 3.7 N 13 19 7 10 1017.3 1017.6 0.0
11/02:00pm 15.2 12.0 7.0 58 4.1 N 13 19 7 10 1017.6 1017.9 0.0
11/01:30pm 15.3 12.5 6.8 57 4.2 NNE 11 17 6 9 1018.1 1018.3 0.0
11/01:00pm 15.5 12.3 7.0 57 4.2 N 13 19 7 10 1018.7 1019.0 0.0
11/12:30pm 15.3 12.7 7.8 61 3.8 N 11 20 6 11 1019.3 1019.6 0.0
11/12:00pm 15.0 11.7 8.0 63 3.5 NNE 15 19 8 10 1019.7 1020.0 0.0
11/11:30am 14.5 11.2 8.2 66 3.2 NE 15 20 8 11 1020.3 1020.6 0.0
11/11:00am 13.1 11.0 8.2 72 2.5 N 9 13 5 7 1020.8 1021.1 0.0
11/10:30am 12.1 9.1 7.6 74 2.2 NNE 13 19 7 10 1021.1 1021.4 0.0
11/10:00am 11.0 8.6 7.1 77 1.9 ENE 9 13 5 7 1021.0 1021.3 0.0
11/09:30am 9.5 7.4 5.9 78 1.7 NE 6 7 3 4 1021.5 1021.8 0.0
11/09:00am 8.9 7.0 6.9 87 0.9 E 6 7 3 4 1021.4 1021.7 0.0
11/08:30am 6.1 4.0 6.0 99 0.0 E 6 7 3 4 1021.2 1021.5 0.0
11/08:00am 3.6 2.2 3.5 99 0.0 CALM 0 0 0 0 1021.1 1021.4 0.0
11/07:30am 1.7 0.0 1.6 99 0.0 CALM 0 0 0 0 1020.8 1021.1 0.0
11/07:00am 0.4 -1.5 0.3 99 0.0 CALM 0 6 0 3 1020.8 1021.1 0.0
11/06:30am 0.5 -1.4 0.4 99 0.0 CALM 0 0 0 0 1020.3 1020.6 0.0
11/06:00am 0.7 -1.2 0.6 99 0.0 CALM 0 0 0 0 1020.3 1020.6 0.0
11/05:30am 0.9 -1.0 0.8 99 0.0 CALM 0 0 0 0 1020.0 1020.3 0.0
11/05:00am 1.0 -0.8 0.9 99 0.0 CALM 0 0 0 0 1020.0 1020.3 0.0
11/04:30am 1.1 -0.7 1.0 99 0.0 CALM 0 0 0 0 1019.9 1020.2 0.0
11/04:00am 1.7 0.0 1.6 99 0.0 CALM 0 0 0 0 1019.9 1020.2 0.0
11/03:30am 2.9 1.4 2.8 99 0.0 CALM 0 0 0 0 1019.8 1020.1 0.0
11/03:00am 2.6 -0.1 2.5 99 0.0 ESE 6 7 3 4 1019.7 1020.0 0.0
11/02:30am 2.3 0.7 2.2 99 0.0 CALM 0 0 0 0 1020.0 1020.3 0.0
11/02:00am 2.8 1.2 2.7 99 0.0 CALM 0 0 0 0 1020.4 1020.7 0.0
11/01:30am 2.3 0.7 2.2 99 0.0 CALM 0 4 0 2 1020.8 1021.1 0.0
11/01:00am 2.8 0.1 2.5 98 0.1 SSE 6 7 3 4 1021.2 1021.5 0.0
11/12:30am 3.7 1.5 3.1 96 0.2 S 4 6 2 3 1021.4 1021.7 0.0
11/12:00am 4.3 2.1 3.4 94 0.4 SE 4 9 2 5 1021.3 1021.6 0.0
 
Date/Time
EST
Temp
°C
App
Temp
°C
Dew
Point
°C
Rel
Hum
%
Delta-T
°C
Wind Press
QNH
hPa
Press
MSL
hPa
Rain since
9am
mm
Dir  Spd
km/h
Gust
km/h
Spd
kts
Gust
kts
10/11:30pm 4.7 1.2 3.7 93 0.4 SSE 11 13 6 7 1021.2 1021.5 0.0
10/11:00pm 5.6 2.7 4.9 95 0.3 SSE 9 11 5 6 1021.0 1021.3 0.0
10/10:30pm 5.1 2.2 4.5 96 0.3 S 9 11 5 6 1021.0 1021.3 0.0
10/10:00pm 5.4 2.5 4.4 93 0.4 S 9 11 5 6 1021.1 1021.4 0.0
10/09:30pm 7.3 4.9 5.1 86 1.0 SSE 7 9 4 5 1021.1 1021.4 0.0
10/09:00pm 8.8 6.1 5.5 80 1.5 ESE 9 15 5 8 1020.8 1021.1 0.0
10/08:30pm 8.7 6.0 5.4 80 1.5 ESE 9 13 5 7 1020.5 1020.8 0.0
10/08:00pm 9.5 6.5 6.0 79 1.6 SE 11 15 6 8 1020.1 1020.4 0.0
10/07:30pm 10.0 7.8 6.3 78 1.7 SSE 7 13 4 7 1020.1 1020.4 0.0
10/07:00pm 9.1 7.1 6.2 82 1.3 SSE 6 9 3 5 1020.0 1020.3 0.0
10/06:30pm 9.0 7.0 6.1 82 1.3 S 6 7 3 4 1019.6 1019.9 0.0
10/06:00pm 10.1 7.9 6.4 78 1.7 SSE 7 9 4 5 1019.4 1019.7 0.0
10/05:30pm 11.8 9.7 6.7 71 2.5 SSE 7 11 4 6 1019.1 1019.4 0.0
10/05:00pm 13.7 11.3 7.2 65 3.2 SSE 9 17 5 9 1019.0 1019.3 0.0
10/04:30pm 14.4 11.5 6.5 59 3.9 SE 11 19 6 10 1018.9 1019.2 0.0
10/04:00pm 14.7 11.2 7.0 60 3.8 SE 15 24 8 13 1018.7 1019.0 0.0
10/03:30pm 15.0 10.8 7.3 60 3.8 ESE 19 28 10 15 1018.6 1018.9 0.0
10/03:00pm 15.0 11.2 7.5 61 3.7 SE 17 26 9 14 1018.5 1018.8 0.0
10/02:30pm 14.8 10.5 7.8 63 3.5 SE 20 30 11 16 1018.6 1018.9 0.0
10/02:00pm 15.2 10.8 7.5 60 3.9 SE 20 26 11 14 1018.4 1018.7 0.0
10/01:30pm 14.7 10.1 8.0 64 3.4 SE 22 33 12 18 1018.6 1018.9 0.0
10/01:00pm 14.5 10.2 8.0 65 3.3 SSE 20 30 11 16 1018.6 1018.9 0.0
10/12:30pm 14.9 11.0 8.8 67 3.1 SE 19 28 10 15 1018.7 1019.0 0.0
10/12:00pm 14.3 9.3 8.0 66 3.2 SSE 24 39 13 21 1019.0 1019.3 0.0
10/11:30am 13.9 9.6 7.9 67 3.0 SSE 20 32 11 17 1019.1 1019.4 0.0
10/11:00am 13.6 8.7 8.4 71 2.6 SSE 24 32 13 17 1019.1 1019.4 0.0
10/10:30am 13.0 7.6 7.9 71 2.5 SSE 26 35 14 19 1018.9 1019.2 0.0
10/10:00am 12.4 7.7 7.9 74 2.2 SSE 22 35 12 19 1019.0 1019.3 0.0
10/09:30am 11.5 6.0 7.4 76 2.0 SSE 26 37 14 20 1018.7 1019.0 0.0
10/09:00am 10.8 6.4 6.6 75 2.0 SSE 19 26 10 14 1018.7 1019.0 4.2
10/08:30am 9.2 5.1 6.3 82 1.4 S 17 24 9 13 1018.5 1018.8 4.2
10/08:00am 7.8 3.6 5.8 87 0.9 S 17 20 9 11 1018.2 1018.4 4.2
10/07:30am 7.4 3.5 5.5 88 0.9 S 15 22 8 12 1017.6 1017.9 4.2
10/07:00am 6.7 2.8 5.5 92 0.5 S 15 20 8 11 1017.3 1017.6 4.2
10/06:30am 6.9 2.1 5.5 91 0.6 S 20 24 11 13 1016.9 1017.2 4.2
10/06:00am 6.8 2.2 5.4 91 0.6 S 19 24 10 13 1016.6 1016.9 4.2
10/05:30am 6.6 2.0 5.6 93 0.5 SSW 19 26 10 14 1016.1 1016.4 4.2
10/05:00am 6.8 2.0 5.7 93 0.5 S 20 26 11 14 1015.7 1016.0 4.2
10/04:30am 7.3 2.8 5.9 91 0.6 SSW 19 26 10 14 1015.4 1015.7 4.2
10/04:00am 7.4 2.8 6.5 94 0.4 SSW 20 30 11 16 1015.0 1015.3 4.2
10/03:30am 7.3 3.4 6.9 97 0.2 SSW 17 24 9 13 1014.5 1014.7 4.2
10/03:00am 7.9 4.5 7.8 99 0.0 SSW 15 22 8 12 1014.1 1014.3 4.2
10/02:30am 7.4 4.3 7.4 100 0.0 SSW 13 19 7 10 1013.8 1014.0 4.2
10/02:00am 7.5 4.5 7.5 100 0.0 SSW 13 17 7 9 1013.9 1014.1 4.2
10/01:30am 7.9 5.7 7.9 100 0.0 SSW 9 17 5 9 1014.0 1014.2 4.2
10/01:00am 8.3 5.8 8.3 100 0.0 SSW 11 13 6 7 1013.9 1014.1 4.2
10/12:30am 8.7 5.9 8.7 100 0.0 SSW 13 17 7 9 1014.1 1014.3 4.2
10/12:00am 8.7 5.6 8.7 100 0.0 SSW 15 19 8 10 1014.4 1014.6 4.2
 
Date/Time
EST
Temp
°C
App
Temp
°C
Dew
Point
°C
Rel
Hum
%
Delta-T
°C
Wind Press
QNH
hPa
Press
MSL
hPa
Rain since
9am
mm
Dir  Spd
km/h
Gust
km/h
Spd
kts
Gust
kts
09/11:30pm 8.3 6.6 8.3 100 0.0 SW 7 13 4 7 1014.3 1014.5 4.2
09/11:00pm 8.2 6.1 8.2 100 0.0 SW 9 13 5 7 1014.3 1014.5 4.2

Other formats

Comma delimited format used in spreadsheet applications
http://www.bom.gov.au/fwo/IDN60801/IDN60801.94715.axf

JavaScript Object Notation format (JSON) in row-major order
http://www.bom.gov.au/fwo/IDN60801/IDN60801.94715.json

Data quality

Most of these data are generated automatically and are frequently updated. Quality checks on data are not normally performed. It is possible for incorrect values to appear. Refer to information at About Latest Weather Observations and please check the disclaimer before using these data.